createdAt,value
2023-05-14T00:00:01.021Z,9.9
2023-05-14T00:04:01.188Z,9.8
2023-05-14T00:08:01.323Z,9.8
2023-05-14T00:12:01.136Z,9.8
2023-05-14T00:16:00.969Z,9.6
2023-05-14T00:20:01.173Z,9.6
2023-05-14T00:24:00.949Z,9.4
2023-05-14T00:28:01.309Z,9.4
2023-05-14T00:32:01.639Z,9.4
2023-05-14T00:36:01.149Z,9.2
2023-05-14T00:40:01.040Z,9.2
2023-05-14T00:44:01.149Z,9.3
2023-05-14T00:48:00.969Z,9.3
2023-05-14T00:52:01.285Z,9.3
2023-05-14T00:56:01.511Z,9.8
2023-05-14T01:00:01.467Z,9.8
2023-05-14T01:04:01.175Z,9.8
2023-05-14T01:08:04.315Z,9.8
2023-05-14T01:12:04.917Z,9.7
2023-05-14T01:16:02.645Z,9.7
2023-05-14T01:20:01.371Z,9.7
2023-05-14T01:24:01.150Z,9.6
2023-05-14T01:28:05.632Z,9.6
2023-05-14T01:32:05.226Z,9.5
2023-05-14T01:36:01.149Z,9.5
2023-05-14T01:40:01.973Z,9.5
2023-05-14T01:44:01.073Z,9.4
2023-05-14T01:48:01.209Z,9.4
2023-05-14T01:52:00.921Z,9.4
2023-05-14T01:56:01.035Z,9.3
2023-05-14T02:00:01.248Z,9.3
2023-05-14T02:04:01.229Z,9.2
2023-05-14T02:08:00.957Z,9.2
2023-05-14T02:12:01.220Z,9.2
2023-05-14T02:16:00.950Z,9.2
2023-05-14T02:20:01.156Z,9.2
2023-05-14T02:24:00.964Z,9.1
2023-05-14T02:28:01.087Z,9.1
2023-05-14T02:32:00.971Z,9.1
2023-05-14T02:36:01.086Z,9
2023-05-14T02:40:00.972Z,9
2023-05-14T02:44:01.029Z,8.8
2023-05-14T02:48:00.955Z,8.8
2023-05-14T02:52:01.085Z,8.8
2023-05-14T02:56:01.016Z,8.7
2023-05-14T03:00:01.037Z,8.7
2023-05-14T03:04:00.935Z,8.6
2023-05-14T03:08:01.437Z,8.6
2023-05-14T03:12:01.014Z,8.6
2023-05-14T03:16:01.142Z,8.6
2023-05-14T03:20:01.106Z,8.6
2023-05-14T03:24:01.104Z,8.6
2023-05-14T03:28:00.958Z,8.6
2023-05-14T03:32:01.204Z,8.6
2023-05-14T03:36:00.984Z,8.6
2023-05-14T03:40:01.098Z,8.6
2023-05-14T03:44:00.963Z,8.6
2023-05-14T03:48:01.120Z,8.6
2023-05-14T03:52:00.973Z,8.6
2023-05-14T03:56:01.144Z,8.6
2023-05-14T04:00:00.952Z,8.6
2023-05-14T04:04:01.130Z,8.6
2023-05-14T04:08:01.123Z,8.6
2023-05-14T04:12:01.210Z,8.6
2023-05-14T04:16:01.014Z,8.6
2023-05-14T04:20:01.073Z,8.6
2023-05-14T04:24:00.939Z,8.6
2023-05-14T04:28:01.292Z,8.6
2023-05-14T04:32:01.036Z,8.6
2023-05-14T04:36:01.139Z,8.7
2023-05-14T04:40:00.954Z,8.7
2023-05-14T04:44:01.998Z,8.7
2023-05-14T04:48:01.339Z,8.7
2023-05-14T04:52:01.642Z,8.7
2023-05-14T04:56:00.954Z,8.8
2023-05-14T05:00:01.168Z,8.8
2023-05-14T05:04:01.251Z,8.9
2023-05-14T05:08:01.130Z,8.9
2023-05-14T05:12:01.106Z,8.9
2023-05-14T05:16:01.205Z,9
2023-05-14T05:20:00.981Z,9
2023-05-14T05:24:01.191Z,9.1
2023-05-14T05:28:00.929Z,9.1
2023-05-14T05:32:01.153Z,9.1
2023-05-14T05:36:00.955Z,9.3
2023-05-14T05:40:01.008Z,9.3
2023-05-14T05:44:01.028Z,9.7
2023-05-14T05:48:01.168Z,9.7
2023-05-14T05:52:00.955Z,9.7
2023-05-14T05:56:01.220Z,10.2
2023-05-14T06:00:07.293Z,10.2
2023-05-14T06:04:01.106Z,10.7
2023-05-14T06:08:01.051Z,10.7
2023-05-14T06:12:01.164Z,10.7
2023-05-14T06:16:01.016Z,11.3
2023-05-14T06:20:01.243Z,11.3
2023-05-14T06:24:00.908Z,11.8
2023-05-14T06:28:00.937Z,11.8
2023-05-14T06:32:01.528Z,11.8
2023-05-14T06:36:03.377Z,12.5
2023-05-14T06:40:01.030Z,12.5
2023-05-14T06:44:01.198Z,13.3
2023-05-14T06:48:00.996Z,13.3
2023-05-14T06:52:01.125Z,13.3
2023-05-14T06:56:00.965Z,14
2023-05-14T07:00:03.082Z,14
2023-05-14T07:04:00.954Z,14.7
2023-05-14T07:08:01.161Z,14.7
2023-05-14T07:12:00.937Z,14.7
2023-05-14T07:16:01.145Z,15.5
2023-05-14T07:20:00.970Z,15.5
2023-05-14T07:24:01.290Z,16.2
2023-05-14T07:28:00.934Z,16.2
2023-05-14T07:32:01.096Z,16.2
2023-05-14T07:36:01.033Z,16.7
2023-05-14T07:40:01.250Z,16.7
2023-05-14T07:44:01.030Z,17.3
2023-05-14T07:48:01.142Z,17.3
2023-05-14T07:52:00.968Z,17.3
2023-05-14T07:56:01.105Z,17.8
2023-05-14T08:00:01.069Z,17.8
2023-05-14T08:04:01.293Z,18.3
2023-05-14T08:08:01.600Z,18.3
2023-05-14T08:12:01.250Z,18.3
2023-05-14T08:16:01.150Z,18.8
2023-05-14T08:20:02.208Z,18.8
2023-05-14T08:24:00.916Z,19.2
2023-05-14T08:28:01.416Z,19.2
2023-05-14T08:32:05.934Z,19.2
2023-05-14T08:36:01.029Z,19.5
2023-05-14T08:40:00.971Z,19.5
2023-05-14T08:44:06.018Z,19.7
2023-05-14T08:48:04.622Z,19.7
2023-05-14T08:52:01.170Z,19.7
2023-05-14T08:56:02.128Z,20
2023-05-14T09:00:05.489Z,20
2023-05-14T09:04:06.033Z,20.2
2023-05-14T09:08:01.067Z,20.2
2023-05-14T09:12:01.193Z,20.2
2023-05-14T09:16:01.972Z,20.4
2023-05-14T09:20:01.069Z,20.4
2023-05-14T09:24:01.208Z,20.5
2023-05-14T09:28:05.156Z,20.5
2023-05-14T09:32:04.413Z,20.5
2023-05-14T09:36:01.295Z,20.5
2023-05-14T09:40:05.236Z,20.5
2023-05-14T09:44:01.160Z,20.3
2023-05-14T09:48:01.645Z,20.3
2023-05-14T09:52:02.570Z,20.5
2023-05-14T09:56:01.167Z,20.5
2023-05-14T10:00:01.080Z,20.5
2023-05-14T10:04:03.026Z,20.6
2023-05-14T10:08:02.947Z,20.6
2023-05-14T10:12:01.282Z,20.6
2023-05-14T10:16:06.069Z,20.6
2023-05-14T10:20:01.804Z,20.6
2023-05-14T10:24:01.520Z,20.4
2023-05-14T10:28:01.615Z,20.4
2023-05-14T10:32:04.003Z,20.7
2023-05-14T10:36:02.421Z,20.7
2023-05-14T10:40:01.573Z,20.7
2023-05-14T10:44:07.372Z,21
2023-05-14T10:48:01.216Z,21
2023-05-14T10:52:01.149Z,21
2023-05-14T10:56:03.476Z,21.3
2023-05-14T11:00:01.324Z,21.3
2023-05-14T11:04:02.135Z,21.4
2023-05-14T11:08:03.311Z,21.4
2023-05-14T11:12:01.154Z,21.4
2023-05-14T11:16:06.268Z,21.8
2023-05-14T11:20:01.313Z,21.8
2023-05-14T11:24:01.226Z,21.9
2023-05-14T11:28:01.091Z,21.9
2023-05-14T11:32:01.503Z,21.9
2023-05-14T11:36:01.205Z,22
2023-05-14T11:40:01.226Z,22
2023-05-14T11:44:02.381Z,22
2023-05-14T11:48:01.084Z,22
2023-05-14T11:52:01.616Z,22
2023-05-14T11:56:02.250Z,22.1
2023-05-14T12:00:01.174Z,22.1
2023-05-14T12:04:03.022Z,22.2
2023-05-14T12:08:01.124Z,22.2
2023-05-14T12:12:07.277Z,22.5
2023-05-14T12:16:01.554Z,22.5
2023-05-14T12:20:01.020Z,22.5
2023-05-14T12:24:01.366Z,22.4
2023-05-14T12:28:01.031Z,22.4
2023-05-14T12:32:03.653Z,22.2
2023-05-14T12:36:07.319Z,22.2
2023-05-14T12:40:01.079Z,22.2
2023-05-14T12:44:01.981Z,22.3
2023-05-14T12:48:01.056Z,22.3
2023-05-14T12:52:17.210Z,22.3
2023-05-14T12:56:01.395Z,22.3
2023-05-14T13:00:01.036Z,22.3
2023-05-14T13:04:01.021Z,22.4
2023-05-14T13:08:03.020Z,22.4
2023-05-14T13:12:01.038Z,22.4
2023-05-14T13:16:01.025Z,22.8
2023-05-14T13:20:01.014Z,22.8
2023-05-14T13:24:01.028Z,23
2023-05-14T13:28:01.097Z,23
2023-05-14T13:32:01.004Z,23
2023-05-14T13:36:01.426Z,23
2023-05-14T13:40:01.175Z,23
2023-05-14T13:44:01.076Z,23.3
2023-05-14T13:48:01.040Z,23.3
2023-05-14T13:52:01.036Z,23.3
2023-05-14T13:56:01.141Z,23.3
2023-05-14T14:00:01.242Z,23.3
2023-05-14T14:04:01.282Z,22.8
2023-05-14T14:08:13.068Z,22.8
2023-05-14T14:12:02.083Z,22.8
2023-05-14T14:16:02.535Z,22.7
2023-05-14T14:20:01.048Z,22.7
2023-05-14T14:24:01.333Z,22.7
2023-05-14T14:28:01.112Z,22.7
2023-05-14T14:32:01.158Z,22.7
2023-05-14T14:36:01.285Z,22.5
2023-05-14T14:40:00.923Z,22.5
2023-05-14T14:44:01.889Z,22.4
2023-05-14T14:48:10.793Z,22.4
2023-05-14T14:52:01.069Z,22.4
2023-05-14T14:56:01.019Z,22.2
2023-05-14T15:00:02.438Z,22.2
2023-05-14T15:04:00.945Z,22
2023-05-14T15:08:01.136Z,22
2023-05-14T15:12:01.159Z,22
2023-05-14T15:16:01.209Z,22.2
2023-05-14T15:20:00.988Z,22.2
2023-05-14T15:24:02.082Z,22.5
2023-05-14T15:28:00.923Z,22.5
2023-05-14T15:32:01.312Z,22.5
2023-05-14T15:36:01.100Z,22.2
2023-05-14T15:40:01.184Z,22.2
2023-05-14T15:44:00.927Z,22.3
2023-05-14T15:48:01.231Z,22.3
2023-05-14T15:52:01.865Z,22.3
2023-05-14T15:56:01.661Z,22.4
2023-05-14T16:00:01.159Z,22.4
2023-05-14T16:04:01.117Z,22.4
2023-05-14T16:08:00.976Z,22.4
2023-05-14T16:12:01.682Z,22.4
2023-05-14T16:16:01.140Z,22.4
2023-05-14T16:20:01.224Z,22.4
2023-05-14T16:24:01.117Z,22.1
2023-05-14T16:28:01.051Z,22.1
2023-05-14T16:32:01.035Z,22.1
2023-05-14T16:36:01.098Z,21.8
2023-05-14T16:40:00.955Z,21.8
2023-05-14T16:44:01.419Z,21.5
2023-05-14T16:48:01.098Z,21.5
2023-05-14T16:52:01.212Z,21.5
2023-05-14T16:56:01.136Z,21.4
2023-05-14T17:00:05.064Z,21.4
2023-05-14T17:04:01.037Z,21.3
2023-05-14T17:08:01.075Z,21.3
2023-05-14T17:12:00.967Z,21.3
2023-05-14T17:16:01.236Z,20.6
2023-05-14T17:20:01.046Z,20.6
2023-05-14T17:24:01.236Z,20.1
2023-05-14T17:28:01.327Z,20.1
2023-05-14T17:32:02.501Z,20.1
2023-05-14T17:36:01.026Z,19.6
2023-05-14T17:40:01.108Z,19.6
2023-05-14T17:44:01.087Z,19.2
2023-05-14T17:48:01.174Z,19.2
2023-05-14T17:52:01.046Z,19.2
2023-05-14T17:56:01.173Z,18.9
2023-05-14T18:00:01.173Z,18.9
2023-05-14T18:04:01.776Z,18.7
2023-05-14T18:08:01.008Z,18.7
2023-05-14T18:12:01.193Z,18.7
2023-05-14T18:16:01.113Z,18.5
2023-05-14T18:20:01.206Z,18.5
2023-05-14T18:24:00.996Z,18.3
2023-05-14T18:28:01.087Z,18.3
2023-05-14T18:32:00.965Z,18.3
2023-05-14T18:36:01.140Z,18.1
2023-05-14T18:40:01.257Z,18.1
2023-05-14T18:44:01.505Z,17.8
2023-05-14T18:48:01.152Z,17.8
2023-05-14T18:52:01.103Z,17.8
2023-05-14T18:56:00.981Z,17.7
2023-05-14T19:00:01.263Z,17.7
2023-05-14T19:04:02.541Z,17.5
2023-05-14T19:08:01.199Z,17.5
2023-05-14T19:12:01.032Z,17.5
2023-05-14T19:16:01.273Z,17.4
2023-05-14T19:20:00.970Z,17.4
2023-05-14T19:24:01.199Z,17.2
2023-05-14T19:28:02.603Z,17.2
2023-05-14T19:32:01.294Z,17.2
2023-05-14T19:36:01.064Z,17
2023-05-14T19:40:01.257Z,17
2023-05-14T19:44:01.005Z,16.8
2023-05-14T19:48:01.255Z,16.8
2023-05-14T19:52:00.936Z,16.8
2023-05-14T19:56:01.306Z,16.8
2023-05-14T20:00:00.984Z,16.8
2023-05-14T20:04:01.487Z,16.6
2023-05-14T20:08:01.651Z,16.6
2023-05-14T20:12:01.141Z,16.6
2023-05-14T20:16:00.953Z,16.4
2023-05-14T20:20:01.050Z,16.4
2023-05-14T20:24:00.969Z,16.3
2023-05-14T20:28:00.995Z,16.3
2023-05-14T20:32:00.958Z,16.3
2023-05-14T20:36:03.442Z,16.1
2023-05-14T20:40:01.531Z,16.1
2023-05-14T20:44:01.164Z,15.9
2023-05-14T20:48:01.017Z,15.9
2023-05-14T20:52:00.902Z,15.9
2023-05-14T20:56:01.110Z,15.5
2023-05-14T21:00:01.150Z,15.5
2023-05-14T21:04:01.155Z,15.2
2023-05-14T21:08:01.338Z,15.2
2023-05-14T21:12:00.982Z,15.2
2023-05-14T21:16:01.198Z,14.9
2023-05-14T21:20:01.254Z,14.9
2023-05-14T21:24:00.966Z,14.6
2023-05-14T21:28:00.929Z,14.6
2023-05-14T21:32:01.242Z,14.6
2023-05-14T21:36:01.090Z,14.3
2023-05-14T21:40:01.095Z,14.3
2023-05-14T21:44:01.097Z,14.1
2023-05-14T21:48:01.139Z,14.1
2023-05-14T21:52:00.903Z,14.1
2023-05-14T21:56:01.132Z,13.8
2023-05-14T22:00:01.093Z,13.8
2023-05-14T22:04:01.100Z,13.5
2023-05-14T22:08:01.062Z,13.5
2023-05-14T22:12:01.083Z,13.5
2023-05-14T22:16:11.903Z,13.2
2023-05-14T22:20:01.130Z,13.2
2023-05-14T22:24:00.922Z,12.9
2023-05-14T22:28:00.916Z,12.9
2023-05-14T22:32:01.094Z,12.9
2023-05-14T22:36:01.116Z,12.6
2023-05-14T22:40:03.902Z,12.6
2023-05-14T22:44:01.233Z,12.3
2023-05-14T22:48:01.311Z,12.3
2023-05-14T22:52:01.006Z,12.3
2023-05-14T22:56:01.154Z,11.8
2023-05-14T23:00:01.135Z,11.8
2023-05-14T23:04:00.967Z,11.3
2023-05-14T23:08:01.542Z,11.3
2023-05-14T23:12:00.966Z,11.3
2023-05-14T23:16:01.325Z,11.3
2023-05-14T23:20:01.083Z,11.3
2023-05-14T23:24:01.021Z,11.3
2023-05-14T23:28:00.890Z,11.3
2023-05-14T23:32:01.175Z,11.3
2023-05-14T23:36:01.020Z,10.4
2023-05-14T23:40:01.080Z,10.4
2023-05-14T23:44:01.073Z,10.1
2023-05-14T23:48:01.356Z,10.1
2023-05-14T23:52:01.274Z,10.1
2023-05-14T23:56:01.318Z,9.9
